sensor_id;sensor_type;location;lat;lon;timestamp;P1;P2;P0
55043;PMS5003;54902;50.420;18.854;2023-12-04T00:00:10;9;7;6
55043;PMS5003;54902;50.420;18.854;2023-12-04T00:00:42;9;7;6
55043;PMS5003;54902;50.420;18.854;2023-12-04T00:01:14;9;7;6
55043;PMS5003;54902;50.420;18.854;2023-12-04T00:01:46;9;7;6
55043;PMS5003;54902;50.420;18.854;2023-12-04T00:02:17;9;7;6
55043;PMS5003;54902;50.420;18.854;2023-12-04T00:02:48;9;7;6
55043;PMS5003;54902;50.420;18.854;2023-12-04T00:03:19;9;7;6
55043;PMS5003;54902;50.420;18.854;2023-12-04T00:03:50;9;7;6
55043;PMS5003;54902;50.420;18.854;2023-12-04T00:04:21;9;7;6
55043;PMS5003;54902;50.420;18.854;2023-12-04T00:04:52;9;7;6
55043;PMS5003;54902;50.420;18.854;2023-12-04T00:05:23;9;7;6
55043;PMS5003;54902;50.420;18.854;2023-12-04T00:05:55;3;3;3
55043;PMS5003;54902;50.420;18.854;2023-12-04T00:06:26;3;3;3
55043;PMS5003;54902;50.420;18.854;2023-12-04T00:06:57;3;3;3
55043;PMS5003;54902;50.420;18.854;2023-12-04T00:07:28;3;3;3
55043;PMS5003;54902;50.420;18.854;2023-12-04T00:07:59;3;3;3
55043;PMS5003;54902;50.420;18.854;2023-12-04T00:08:30;3;3;3
55043;PMS5003;54902;50.420;18.854;2023-12-04T00:09:01;3;3;3
55043;PMS5003;54902;50.420;18.854;2023-12-04T00:09:32;3;3;3
55043;PMS5003;54902;50.420;18.854;2023-12-04T00:10:03;3;3;3
55043;PMS5003;54902;50.420;18.854;2023-12-04T00:10:34;6;6;4
55043;PMS5003;54902;50.420;18.854;2023-12-04T00:11:05;6;6;4
55043;PMS5003;54902;50.420;18.854;2023-12-04T00:11:37;6;6;4
55043;PMS5003;54902;50.420;18.854;2023-12-04T00:12:08;6;6;4
55043;PMS5003;54902;50.420;18.854;2023-12-04T00:12:39;6;6;4
55043;PMS5003;54902;50.420;18.854;2023-12-04T00:13:10;6;6;4
55043;PMS5003;54902;50.420;18.854;2023-12-04T00:13:41;5;5;4
55043;PMS5003;54902;50.420;18.854;2023-12-04T00:14:12;5;5;4
55043;PMS5003;54902;50.420;18.854;2023-12-04T00:14:43;5;5;4
55043;PMS5003;54902;50.420;18.854;2023-12-04T00:15:14;5;5;4
55043;PMS5003;54902;50.420;18.854;2023-12-04T00:15:46;5;5;5
55043;PMS5003;54902;50.420;18.854;2023-12-04T00:16:17;5;5;5
55043;PMS5003;54902;50.420;18.854;2023-12-04T00:16:49;5;5;5
55043;PMS5003;54902;50.420;18.854;2023-12-04T00:17:20;5;5;5
55043;PMS5003;54902;50.420;18.854;2023-12-04T00:17:52;5;5;5
55043;PMS5003;54902;50.420;18.854;2023-12-04T00:18:23;5;5;5
55043;PMS5003;54902;50.420;18.854;2023-12-04T00:18:54;5;5;5
55043;PMS5003;54902;50.420;18.854;2023-12-04T00:19:25;5;5;5
55043;PMS5003;54902;50.420;18.854;2023-12-04T00:19:56;5;5;5
55043;PMS5003;54902;50.420;18.854;2023-12-04T00:20:27;5;5;5
55043;PMS5003;54902;50.420;18.854;2023-12-04T00:20:58;6;6;6
55043;PMS5003;54902;50.420;18.854;2023-12-04T00:21:29;6;6;6
55043;PMS5003;54902;50.420;18.854;2023-12-04T00:22:00;6;6;6
55043;PMS5003;54902;50.420;18.854;2023-12-04T00:22:31;6;6;6
55043;PMS5003;54902;50.420;18.854;2023-12-04T00:23:02;7;7;5
55043;PMS5003;54902;50.420;18.854;2023-12-04T00:23:33;7;7;5
55043;PMS5003;54902;50.420;18.854;2023-12-04T00:24:04;7;7;5
55043;PMS5003;54902;50.420;18.854;2023-12-04T00:24:35;7;7;5
55043;PMS5003;54902;50.420;18.854;2023-12-04T00:25:07;7;7;5
55043;PMS5003;54902;50.420;18.854;2023-12-04T00:25:38;7;7;5
55043;PMS5003;54902;50.420;18.854;2023-12-04T00:26:09;6;6;3
55043;PMS5003;54902;50.420;18.854;2023-12-04T00:26:40;6;6;3
55043;PMS5003;54902;50.420;18.854;2023-12-04T00:27:11;6;6;3
55043;PMS5003;54902;50.420;18.854;2023-12-04T00:27:42;6;6;3
55043;PMS5003;54902;50.420;18.854;2023-12-04T00:28:13;6;6;3
55043;PMS5003;54902;50.420;18.854;2023-12-04T00:28:44;6;6;3
55043;PMS5003;54902;50.420;18.854;2023-12-04T00:29:15;6;6;3
55043;PMS5003;54902;50.420;18.854;2023-12-04T00:29:46;6;6;3
55043;PMS5003;54902;50.420;18.854;2023-12-04T00:30:17;6;6;3
55043;PMS5003;54902;50.420;18.854;2023-12-04T00:30:48;6;6;3
55043;PMS5003;54902;50.420;18.854;2023-12-04T00:31:26;7;7;4
55043;PMS5003;54902;50.420;18.854;2023-12-04T00:31:58;7;7;4
55043;PMS5003;54902;50.420;18.854;2023-12-04T00:32:29;7;7;4
55043;PMS5003;54902;50.420;18.854;2023-12-04T00:33:00;7;7;4
55043;PMS5003;54902;50.420;18.854;2023-12-04T00:33:31;7;7;4
55043;PMS5003;54902;50.420;18.854;2023-12-04T00:34:02;7;7;4
55043;PMS5003;54902;50.420;18.854;2023-12-04T00:34:33;6;6;3
55043;PMS5003;54902;50.420;18.854;2023-12-04T00:35:05;6;6;3
55043;PMS5003;54902;50.420;18.854;2023-12-04T00:35:36;6;6;3
55043;PMS5003;54902;50.420;18.854;2023-12-04T00:36:07;6;6;3
55043;PMS5003;54902;50.420;18.854;2023-12-04T00:36:39;8;8;4
55043;PMS5003;54902;50.420;18.854;2023-12-04T00:37:10;8;8;4
55043;PMS5003;54902;50.420;18.854;2023-12-04T00:37:42;8;8;4
55043;PMS5003;54902;50.420;18.854;2023-12-04T00:38:13;8;8;4
55043;PMS5003;54902;50.420;18.854;2023-12-04T00:38:44;8;8;4
55043;PMS5003;54902;50.420;18.854;2023-12-04T00:39:15;8;8;4
55043;PMS5003;54902;50.420;18.854;2023-12-04T00:39:46;8;8;4
55043;PMS5003;54902;50.420;18.854;2023-12-04T00:40:17;8;8;4
55043;PMS5003;54902;50.420;18.854;2023-12-04T00:40:48;8;8;4
55043;PMS5003;54902;50.420;18.854;2023-12-04T00:41:19;8;8;4
55043;PMS5003;54902;50.420;18.854;2023-12-04T00:41:50;12;12;6
55043;PMS5003;54902;50.420;18.854;2023-12-04T00:42:21;12;12;6
55043;PMS5003;54902;50.420;18.854;2023-12-04T00:42:52;12;12;6
55043;PMS5003;54902;50.420;18.854;2023-12-04T00:43:23;12;12;6
55043;PMS5003;54902;50.420;18.854;2023-12-04T00:43:54;12;12;6
55043;PMS5003;54902;50.420;18.854;2023-12-04T00:44:25;12;12;6
55043;PMS5003;54902;50.420;18.854;2023-12-04T00:44:56;12;12;6
55043;PMS5003;54902;50.420;18.854;2023-12-04T00:45:27;12;12;6
55043;PMS5003;54902;50.420;18.854;2023-12-04T00:45:58;12;12;6
55043;PMS5003;54902;50.420;18.854;2023-12-04T00:46:29;12;12;6
55043;PMS5003;54902;50.420;18.854;2023-12-04T00:47:00;12;12;6
55043;PMS5003;54902;50.420;18.854;2023-12-04T00:47:32;12;12;6
55043;PMS5003;54902;50.420;18.854;2023-12-04T00:48:03;12;12;6
55043;PMS5003;54902;50.420;18.854;2023-12-04T00:48:34;12;12;6
55043;PMS5003;54902;50.420;18.854;2023-12-04T00:49:05;12;12;6
55043;PMS5003;54902;50.420;18.854;2023-12-04T00:49:36;12;12;6
55043;PMS5003;54902;50.420;18.854;2023-12-04T00:50:08;12;12;6
55043;PMS5003;54902;50.420;18.854;2023-12-04T00:50:39;12;12;6
55043;PMS5003;54902;50.420;18.854;2023-12-04T00:51:10;12;12;6
55043;PMS5003;54902;50.420;18.854;2023-12-04T00:51:41;12;12;6
55043;PMS5003;54902;50.420;18.854;2023-12-04T00:52:12;12;12;6
55043;PMS5003;54902;50.420;18.854;2023-12-04T00:52:43;5;5;4
55043;PMS5003;54902;50.420;18.854;2023-12-04T00:53:14;5;5;4
55043;PMS5003;54902;50.420;18.854;2023-12-04T00:53:45;5;5;4
55043;PMS5003;54902;50.420;18.854;2023-12-04T00:54:16;5;5;4
55043;PMS5003;54902;50.420;18.854;2023-12-04T00:54:47;5;5;4
55043;PMS5003;54902;50.420;18.854;2023-12-04T00:55:18;5;5;4
55043;PMS5003;54902;50.420;18.854;2023-12-04T00:55:50;5;5;4
55043;PMS5003;54902;50.420;18.854;2023-12-04T00:56:21;5;5;4
55043;PMS5003;54902;50.420;18.854;2023-12-04T00:56:52;5;5;4
55043;PMS5003;54902;50.420;18.854;2023-12-04T00:57:23;6;6;4
55043;PMS5003;54902;50.420;18.854;2023-12-04T00:57:54;3;3;3
55043;PMS5003;54902;50.420;18.854;2023-12-04T00:58:28;3;3;3
55043;PMS5003;54902;50.420;18.854;2023-12-04T00:58:59;3;3;3
55043;PMS5003;54902;50.420;18.854;2023-12-04T00:59:30;3;3;3
55043;PMS5003;54902;50.420;18.854;2023-12-04T01:00:01;3;3;3
55043;PMS5003;54902;50.420;18.854;2023-12-04T01:00:33;3;3;3
55043;PMS5003;54902;50.420;18.854;2023-12-04T01:01:04;3;3;3
55043;PMS5003;54902;50.420;18.854;2023-12-04T01:01:35;3;3;3
55043;PMS5003;54902;50.420;18.854;2023-12-04T01:02:07;3;3;3
55043;PMS5003;54902;50.420;18.854;2023-12-04T01:02:38;5;5;4
55043;PMS5003;54902;50.420;18.854;2023-12-04T01:03:10;5;5;4
55043;PMS5003;54902;50.420;18.854;2023-12-04T01:03:41;5;5;4
55043;PMS5003;54902;50.420;18.854;2023-12-04T01:04:12;5;5;4
55043;PMS5003;54902;50.420;18.854;2023-12-04T01:04:43;5;5;4
55043;PMS5003;54902;50.420;18.854;2023-12-04T01:05:14;5;5;4
55043;PMS5003;54902;50.420;18.854;2023-12-04T01:05:45;5;5;4
55043;PMS5003;54902;50.420;18.854;2023-12-04T01:06:53;5;5;4
55043;PMS5003;54902;50.420;18.854;2023-12-04T01:07:24;5;5;4
55043;PMS5003;54902;50.420;18.854;2023-12-04T01:07:55;7;7;7
55043;PMS5003;54902;50.420;18.854;2023-12-04T01:08:26;6;5;4
55043;PMS5003;54902;50.420;18.854;2023-12-04T01:08:57;6;5;4
55043;PMS5003;54902;50.420;18.854;2023-12-04T01:09:28;6;5;4
55043;PMS5003;54902;50.420;18.854;2023-12-04T01:09:59;6;5;4
55043;PMS5003;54902;50.420;18.854;2023-12-04T01:10:31;6;5;4
55043;PMS5003;54902;50.420;18.854;2023-12-04T01:11:02;6;5;4
55043;PMS5003;54902;50.420;18.854;2023-12-04T01:11:33;6;5;4
55043;PMS5003;54902;50.420;18.854;2023-12-04T01:12:07;6;5;4
55043;PMS5003;54902;50.420;18.854;2023-12-04T01:12:38;6;5;4
55043;PMS5003;54902;50.420;18.854;2023-12-04T01:13:09;7;7;6
55043;PMS5003;54902;50.420;18.854;2023-12-04T01:13:40;7;7;6
55043;PMS5003;54902;50.420;18.854;2023-12-04T01:14:11;7;7;6
55043;PMS5003;54902;50.420;18.854;2023-12-04T01:14:42;7;7;6
55043;PMS5003;54902;50.420;18.854;2023-12-04T01:15:13;7;7;6
55043;PMS5003;54902;50.420;18.854;2023-12-04T01:15:45;7;7;6
55043;PMS5003;54902;50.420;18.854;2023-12-04T01:16:18;7;7;6
55043;PMS5003;54902;50.420;18.854;2023-12-04T01:16:49;7;7;6
55043;PMS5003;54902;50.420;18.854;2023-12-04T01:17:20;7;7;6
55043;PMS5003;54902;50.420;18.854;2023-12-04T01:17:51;7;7;6
55043;PMS5003;54902;50.420;18.854;2023-12-04T01:18:22;7;7;6
55043;PMS5003;54902;50.420;18.854;2023-12-04T01:18:53;7;7;6
55043;PMS5003;54902;50.420;18.854;2023-12-04T01:19:24;7;7;6
55043;PMS5003;54902;50.420;18.854;2023-12-04T01:19:55;7;7;6
55043;PMS5003;54902;50.420;18.854;2023-12-04T01:20:28;7;7;6
55043;PMS5003;54902;50.420;18.854;2023-12-04T01:20:59;7;7;6
55043;PMS5003;54902;50.420;18.854;2023-12-04T01:21:30;7;7;6
55043;PMS5003;54902;50.420;18.854;2023-12-04T01:22:01;7;7;6
55043;PMS5003;54902;50.420;18.854;2023-12-04T01:22:32;7;7;6
55043;PMS5003;54902;50.420;18.854;2023-12-04T01:23:03;7;7;6
55043;PMS5003;54902;50.420;18.854;2023-12-04T01:23:35;7;7;6
55043;PMS5003;54902;50.420;18.854;2023-12-04T01:24:06;7;7;6
55043;PMS5003;54902;50.420;18.854;2023-12-04T01:24:37;7;7;6
55043;PMS5003;54902;50.420;18.854;2023-12-04T01:25:08;7;7;6
55043;PMS5003;54902;50.420;18.854;2023-12-04T01:25:41;7;7;6
55043;PMS5003;54902;50.420;18.854;2023-12-04T01:26:12;7;7;6
55043;PMS5003;54902;50.420;18.854;2023-12-04T01:26:43;7;7;6
55043;PMS5003;54902;50.420;18.854;2023-12-04T01:27:14;7;7;6
55043;PMS5003;54902;50.420;18.854;2023-12-04T01:27:45;7;7;6
55043;PMS5003;54902;50.420;18.854;2023-12-04T01:28:16;7;7;6
55043;PMS5003;54902;50.420;18.854;2023-12-04T01:28:47;7;7;6
55043;PMS5003;54902;50.420;18.854;2023-12-04T01:29:18;7;7;6
55043;PMS5003;54902;50.420;18.854;2023-12-04T01:29:49;7;7;6
55043;PMS5003;54902;50.420;18.854;2023-12-04T01:30:20;7;7;6
55043;PMS5003;54902;50.420;18.854;2023-12-04T01:30:51;7;7;6
55043;PMS5003;54902;50.420;18.854;2023-12-04T01:31:22;7;7;6
55043;PMS5003;54902;50.420;18.854;2023-12-04T01:31:54;7;7;6
55043;PMS5003;54902;50.420;18.854;2023-12-04T01:32:25;7;7;6
55043;PMS5003;54902;50.420;18.854;2023-12-04T01:32:56;7;7;6
55043;PMS5003;54902;50.420;18.854;2023-12-04T01:33:27;7;7;6
55043;PMS5003;54902;50.420;18.854;2023-12-04T01:33:58;7;7;6
55043;PMS5003;54902;50.420;18.854;2023-12-04T01:34:29;7;7;6
55043;PMS5003;54902;50.420;18.854;2023-12-04T01:35:00;7;7;6
55043;PMS5003;54902;50.420;18.854;2023-12-04T01:35:32;7;7;6
55043;PMS5003;54902;50.420;18.854;2023-12-04T01:36:03;7;7;6
55043;PMS5003;54902;50.420;18.854;2023-12-04T01:36:35;5;5;4
55043;PMS5003;54902;50.420;18.854;2023-12-04T01:37:06;5;5;4
55043;PMS5003;54902;50.420;18.854;2023-12-04T01:37:37;5;5;4
55043;PMS5003;54902;50.420;18.854;2023-12-04T01:38:09;5;5;4
55043;PMS5003;54902;50.420;18.854;2023-12-04T01:38:40;5;5;4
55043;PMS5003;54902;50.420;18.854;2023-12-04T01:39:11;6;6;5
55043;PMS5003;54902;50.420;18.854;2023-12-04T01:39:42;6;6;5
55043;PMS5003;54902;50.420;18.854;2023-12-04T01:40:13;6;6;5
55043;PMS5003;54902;50.420;18.854;2023-12-04T01:40:44;6;6;5
55043;PMS5003;54902;50.420;18.854;2023-12-04T01:41:15;6;6;5
55043;PMS5003;54902;50.420;18.854;2023-12-04T01:41:47;6;6;5
55043;PMS5003;54902;50.420;18.854;2023-12-04T01:42:17;6;6;5
55043;PMS5003;54902;50.420;18.854;2023-12-04T01:42:48;6;6;5
55043;PMS5003;54902;50.420;18.854;2023-12-04T01:43:19;6;6;5
55043;PMS5003;54902;50.420;18.854;2023-12-04T01:43:50;6;6;5
55043;PMS5003;54902;50.420;18.854;2023-12-04T01:44:21;7;7;6
55043;PMS5003;54902;50.420;18.854;2023-12-04T01:44:53;7;7;6
55043;PMS5003;54902;50.420;18.854;2023-12-04T01:45:24;7;7;6
55043;PMS5003;54902;50.420;18.854;2023-12-04T01:45:56;7;7;6
55043;PMS5003;54902;50.420;18.854;2023-12-04T01:46:27;7;7;6
55043;PMS5003;54902;50.420;18.854;2023-12-04T01:46:59;7;7;6
55043;PMS5003;54902;50.420;18.854;2023-12-04T01:47:30;7;7;6
55043;PMS5003;54902;50.420;18.854;2023-12-04T01:48:02;7;7;6
55043;PMS5003;54902;50.420;18.854;2023-12-04T01:48:33;7;7;6
55043;PMS5003;54902;50.420;18.854;2023-12-04T01:49:05;7;7;6
55043;PMS5003;54902;50.420;18.854;2023-12-04T01:49:36;7;7;6
55043;PMS5003;54902;50.420;18.854;2023-12-04T01:50:07;7;7;6
55043;PMS5003;54902;50.420;18.854;2023-12-04T01:50:39;7;7;6
55043;PMS5003;54902;50.420;18.854;2023-12-04T01:51:10;7;7;6
55043;PMS5003;54902;50.420;18.854;2023-12-04T01:51:43;7;7;6
55043;PMS5003;54902;50.420;18.854;2023-12-04T01:52:14;7;7;6
55043;PMS5003;54902;50.420;18.854;2023-12-04T01:52:46;7;7;6
55043;PMS5003;54902;50.420;18.854;2023-12-04T01:53:18;7;7;6
55043;PMS5003;54902;50.420;18.854;2023-12-04T01:53:49;7;7;6
55043;PMS5003;54902;50.420;18.854;2023-12-04T01:54:21;7;7;6
55043;PMS5003;54902;50.420;18.854;2023-12-04T01:54:52;7;7;6
55043;PMS5003;54902;50.420;18.854;2023-12-04T01:55:24;7;7;6
55043;PMS5003;54902;50.420;18.854;2023-12-04T01:55:55;7;7;6
55043;PMS5003;54902;50.420;18.854;2023-12-04T01:56:26;7;7;6
55043;PMS5003;54902;50.420;18.854;2023-12-04T01:56:57;5;5;3
55043;PMS5003;54902;50.420;18.854;2023-12-04T01:57:28;5;5;3
55043;PMS5003;54902;50.420;18.854;2023-12-04T01:58:00;5;5;3
55043;PMS5003;54902;50.420;18.854;2023-12-04T01:58:33;5;5;3
55043;PMS5003;54902;50.420;18.854;2023-12-04T01:59:05;5;5;3
55043;PMS5003;54902;50.420;18.854;2023-12-04T01:59:36;5;5;3
55043;PMS5003;54902;50.420;18.854;2023-12-04T02:00:07;6;6;3
55043;PMS5003;54902;50.420;18.854;2023-12-04T02:00:42;6;6;3
55043;PMS5003;54902;50.420;18.854;2023-12-04T02:01:13;6;6;3
55043;PMS5003;54902;50.420;18.854;2023-12-04T02:01:45;6;6;3
55043;PMS5003;54902;50.420;18.854;2023-12-04T02:02:16;6;6;3
55043;PMS5003;54902;50.420;18.854;2023-12-04T02:02:48;6;6;3
55043;PMS5003;54902;50.420;18.854;2023-12-04T02:03:19;6;6;3
55043;PMS5003;54902;50.420;18.854;2023-12-04T02:03:50;6;6;3
55043;PMS5003;54902;50.420;18.854;2023-12-04T02:04:21;6;6;3
55043;PMS5003;54902;50.420;18.854;2023-12-04T02:04:54;6;6;3
55043;PMS5003;54902;50.420;18.854;2023-12-04T02:05:27;7;7;4
55043;PMS5003;54902;50.420;18.854;2023-12-04T02:05:59;7;7;4
55043;PMS5003;54902;50.420;18.854;2023-12-04T02:06:34;7;7;4
55043;PMS5003;54902;50.420;18.854;2023-12-04T02:07:05;7;7;4
55043;PMS5003;54902;50.420;18.854;2023-12-04T02:07:36;7;7;4
55043;PMS5003;54902;50.420;18.854;2023-12-04T02:08:08;7;7;4
55043;PMS5003;54902;50.420;18.854;2023-12-04T02:08:42;7;7;4
55043;PMS5003;54902;50.420;18.854;2023-12-04T02:09:13;7;7;4
55043;PMS5003;54902;50.420;18.854;2023-12-04T02:09:46;7;7;4
55043;PMS5003;54902;50.420;18.854;2023-12-04T02:10:17;7;7;4
55043;PMS5003;54902;50.420;18.854;2023-12-04T02:10:49;7;7;4
55043;PMS5003;54902;50.420;18.854;2023-12-04T02:11:19;7;7;4
55043;PMS5003;54902;50.420;18.854;2023-12-04T02:11:50;7;7;4
55043;PMS5003;54902;50.420;18.854;2023-12-04T02:12:23;7;7;4
55043;PMS5003;54902;50.420;18.854;2023-12-04T02:12:55;7;7;4
55043;PMS5003;54902;50.420;18.854;2023-12-04T02:13:27;7;7;4
55043;PMS5003;54902;50.420;18.854;2023-12-04T02:13:58;14;14;8
55043;PMS5003;54902;50.420;18.854;2023-12-04T02:14:29;14;14;8
55043;PMS5003;54902;50.420;18.854;2023-12-04T02:15:00;14;14;8
55043;PMS5003;54902;50.420;18.854;2023-12-04T02:15:31;14;14;8
55043;PMS5003;54902;50.420;18.854;2023-12-04T02:16:03;37;33;18
55043;PMS5003;54902;50.420;18.854;2023-12-04T02:16:40;37;33;18
55043;PMS5003;54902;50.420;18.854;2023-12-04T02:17:12;37;33;18
55043;PMS5003;54902;50.420;18.854;2023-12-04T02:17:45;37;33;18
55043;PMS5003;54902;50.420;18.854;2023-12-04T02:18:17;37;33;18
55043;PMS5003;54902;50.420;18.854;2023-12-04T02:18:49;37;33;18
55043;PMS5003;54902;50.420;18.854;2023-12-04T02:19:21;37;33;18
55043;PMS5003;54902;50.420;18.854;2023-12-04T02:19:52;37;33;18
55043;PMS5003;54902;50.420;18.854;2023-12-04T02:21:03;37;33;18
55043;PMS5003;54902;50.420;18.854;2023-12-04T02:21:35;45;40;22
55043;PMS5003;54902;50.420;18.854;2023-12-04T02:22:05;45;40;22
55043;PMS5003;54902;50.420;18.854;2023-12-04T02:22:37;45;40;22
55043;PMS5003;54902;50.420;18.854;2023-12-04T02:23:08;45;40;22
55043;PMS5003;54902;50.420;18.854;2023-12-04T02:23:39;45;40;22
55043;PMS5003;54902;50.420;18.854;2023-12-04T02:24:10;45;40;22
55043;PMS5003;54902;50.420;18.854;2023-12-04T02:24:41;45;40;22
55043;PMS5003;54902;50.420;18.854;2023-12-04T02:25:12;45;40;22
55043;PMS5003;54902;50.420;18.854;2023-12-04T02:25:44;45;40;22
55043;PMS5003;54902;50.420;18.854;2023-12-04T02:26:16;45;40;22
55043;PMS5003;54902;50.420;18.854;2023-12-04T02:26:52;45;40;22
55043;PMS5003;54902;50.420;18.854;2023-12-04T02:27:37;45;40;22
55043;PMS5003;54902;50.420;18.854;2023-12-04T02:28:09;45;40;22
55043;PMS5003;54902;50.420;18.854;2023-12-04T02:28:46;45;40;22
55043;PMS5003;54902;50.420;18.854;2023-12-04T02:29:26;45;40;22
55043;PMS5003;54902;50.420;18.854;2023-12-04T02:30:07;45;40;22
55043;PMS5003;54902;50.420;18.854;2023-12-04T02:30:43;45;40;22
55043;PMS5003;54902;50.420;18.854;2023-12-04T02:31:14;45;40;22
55043;PMS5003;54902;50.420;18.854;2023-12-04T02:31:49;45;40;22
55043;PMS5003;54902;50.420;18.854;2023-12-04T02:32:23;45;40;22
55043;PMS5003;54902;50.420;18.854;2023-12-04T02:32:58;45;40;22
55043;PMS5003;54902;50.420;18.854;2023-12-04T02:33:31;45;40;22
55043;PMS5003;54902;50.420;18.854;2023-12-04T02:34:05;45;40;22
55043;PMS5003;54902;50.420;18.854;2023-12-04T02:34:37;45;40;22
55043;PMS5003;54902;50.420;18.854;2023-12-04T02:35:12;45;40;22
55043;PMS5003;54902;50.420;18.854;2023-12-04T02:35:45;45;40;22
55043;PMS5003;54902;50.420;18.854;2023-12-04T02:36:18;45;40;22
55043;PMS5003;54902;50.420;18.854;2023-12-04T02:36:51;45;40;22
55043;PMS5003;54902;50.420;18.854;2023-12-04T02:37:24;45;40;22
55043;PMS5003;54902;50.420;18.854;2023-12-04T02:37:56;45;40;22
55043;PMS5003;54902;50.420;18.854;2023-12-04T02:38:28;45;40;22
55043;PMS5003;54902;50.420;18.854;2023-12-04T02:39:00;45;40;22
55043;PMS5003;54902;50.420;18.854;2023-12-04T02:39:32;45;40;22
55043;PMS5003;54902;50.420;18.854;2023-12-04T02:40:03;45;40;22
55043;PMS5003;54902;50.420;18.854;2023-12-04T02:40:36;45;40;22
55043;PMS5003;54902;50.420;18.854;2023-12-04T02:41:08;45;40;22
55043;PMS5003;54902;50.420;18.854;2023-12-04T02:41:39;45;40;22
55043;PMS5003;54902;50.420;18.854;2023-12-04T02:42:12;45;40;22
55043;PMS5003;54902;50.420;18.854;2023-12-04T02:42:44;45;40;22
55043;PMS5003;54902;50.420;18.854;2023-12-04T02:43:15;45;40;22
55043;PMS5003;54902;50.420;18.854;2023-12-04T02:43:46;45;40;22
55043;PMS5003;54902;50.420;18.854;2023-12-04T02:44:18;45;40;22
55043;PMS5003;54902;50.420;18.854;2023-12-04T02:44:49;45;40;22
55043;PMS5003;54902;50.420;18.854;2023-12-04T02:45:20;45;40;22
55043;PMS5003;54902;50.420;18.854;2023-12-04T02:45:52;45;40;22
55043;PMS5003;54902;50.420;18.854;2023-12-04T02:46:23;45;40;22
55043;PMS5003;54902;50.420;18.854;2023-12-04T02:46:54;45;40;22
55043;PMS5003;54902;50.420;18.854;2023-12-04T02:47:25;45;40;22
55043;PMS5003;54902;50.420;18.854;2023-12-04T02:47:56;45;40;22
55043;PMS5003;54902;50.420;18.854;2023-12-04T02:48:27;45;40;22
55043;PMS5003;54902;50.420;18.854;2023-12-04T02:48:58;45;40;22
55043;PMS5003;54902;50.420;18.854;2023-12-04T02:49:29;45;40;22
55043;PMS5003;54902;50.420;18.854;2023-12-04T02:50:00;45;40;22
55043;PMS5003;54902;50.420;18.854;2023-12-04T02:50:31;45;40;22
55043;PMS5003;54902;50.420;18.854;2023-12-04T02:51:03;22;20;12
55043;PMS5003;54902;50.420;18.854;2023-12-04T02:51:34;22;20;12
55043;PMS5003;54902;50.420;18.854;2023-12-04T02:52:05;22;20;12
55043;PMS5003;54902;50.420;18.854;2023-12-04T02:52:36;22;20;12
55043;PMS5003;54902;50.420;18.854;2023-12-04T02:53:07;22;20;12
55043;PMS5003;54902;50.420;18.854;2023-12-04T02:53:38;22;20;12
55043;PMS5003;54902;50.420;18.854;2023-12-04T02:54:09;6;6;4
55043;PMS5003;54902;50.420;18.854;2023-12-04T02:54:40;6;6;4
55043;PMS5003;54902;50.420;18.854;2023-12-04T02:55:11;6;6;4
55043;PMS5003;54902;50.420;18.854;2023-12-04T02:55:42;6;6;4
55043;PMS5003;54902;50.420;18.854;2023-12-04T02:56:14;6;6;4
55043;PMS5003;54902;50.420;18.854;2023-12-04T02:56:44;6;6;4
55043;PMS5003;54902;50.420;18.854;2023-12-04T02:57:15;6;6;4
55043;PMS5003;54902;50.420;18.854;2023-12-04T02:57:46;6;6;4
55043;PMS5003;54902;50.420;18.854;2023-12-04T02:58:18;6;6;4
55043;PMS5003;54902;50.420;18.854;2023-12-04T02:58:49;6;6;4
55043;PMS5003;54902;50.420;18.854;2023-12-04T02:59:20;7;7;4
55043;PMS5003;54902;50.420;18.854;2023-12-04T02:59:51;7;7;4
55043;PMS5003;54902;50.420;18.854;2023-12-04T03:00:22;7;7;4
55043;PMS5003;54902;50.420;18.854;2023-12-04T03:00:53;7;7;4
55043;PMS5003;54902;50.420;18.854;2023-12-04T03:01:24;7;7;4
55043;PMS5003;54902;50.420;18.854;2023-12-04T03:01:55;7;7;4
55043;PMS5003;54902;50.420;18.854;2023-12-04T03:02:26;7;7;5
55043;PMS5003;54902;50.420;18.854;2023-12-04T03:02:57;7;7;5
55043;PMS5003;54902;50.420;18.854;2023-12-04T03:03:28;7;7;5
55043;PMS5003;54902;50.420;18.854;2023-12-04T03:03:59;7;7;5
55043;PMS5003;54902;50.420;18.854;2023-12-04T03:04:30;9;9;8
55043;PMS5003;54902;50.420;18.854;2023-12-04T03:05:02;9;9;8
55043;PMS5003;54902;50.420;18.854;2023-12-04T03:05:33;9;9;8
55043;PMS5003;54902;50.420;18.854;2023-12-04T03:06:04;9;9;8
55043;PMS5003;54902;50.420;18.854;2023-12-04T03:06:36;9;9;8
55043;PMS5003;54902;50.420;18.854;2023-12-04T03:07:07;9;9;8
55043;PMS5003;54902;50.420;18.854;2023-12-04T03:07:38;9;9;8
55043;PMS5003;54902;50.420;18.854;2023-12-04T03:08:09;9;9;8
55043;PMS5003;54902;50.420;18.854;2023-12-04T03:08:40;9;9;8
55043;PMS5003;54902;50.420;18.854;2023-12-04T03:09:11;9;9;8
55043;PMS5003;54902;50.420;18.854;2023-12-04T03:09:42;10;10;9
55043;PMS5003;54902;50.420;18.854;2023-12-04T03:10:13;10;10;9
55043;PMS5003;54902;50.420;18.854;2023-12-04T03:10:44;10;10;9
55043;PMS5003;54902;50.420;18.854;2023-12-04T03:11:15;10;10;9
55043;PMS5003;54902;50.420;18.854;2023-12-04T03:11:46;10;10;9
55043;PMS5003;54902;50.420;18.854;2023-12-04T03:12:17;10;10;9
55043;PMS5003;54902;50.420;18.854;2023-12-04T03:12:48;10;10;9
55043;PMS5003;54902;50.420;18.854;2023-12-04T03:13:19;10;10;9
55043;PMS5003;54902;50.420;18.854;2023-12-04T03:13:50;10;10;9
55043;PMS5003;54902;50.420;18.854;2023-12-04T03:14:21;10;10;9
55043;PMS5003;54902;50.420;18.854;2023-12-04T03:14:52;21;21;13
55043;PMS5003;54902;50.420;18.854;2023-12-04T03:15:23;21;21;13
55043;PMS5003;54902;50.420;18.854;2023-12-04T03:15:54;21;21;13
55043;PMS5003;54902;50.420;18.854;2023-12-04T03:16:25;21;21;13
55043;PMS5003;54902;50.420;18.854;2023-12-04T03:16:56;21;21;13
55043;PMS5003;54902;50.420;18.854;2023-12-04T03:17:27;21;21;13
55043;PMS5003;54902;50.420;18.854;2023-12-04T03:17:58;21;21;13
55043;PMS5003;54902;50.420;18.854;2023-12-04T03:18:31;21;21;13
55043;PMS5003;54902;50.420;18.854;2023-12-04T03:19:02;21;21;13
55043;PMS5003;54902;50.420;18.854;2023-12-04T03:19:33;21;21;13
55043;PMS5003;54902;50.420;18.854;2023-12-04T03:20:04;36;36;21
55043;PMS5003;54902;50.420;18.854;2023-12-04T03:20:38;36;36;21
55043;PMS5003;54902;50.420;18.854;2023-12-04T03:21:10;36;36;21
55043;PMS5003;54902;50.420;18.854;2023-12-04T03:21:41;36;36;21
55043;PMS5003;54902;50.420;18.854;2023-12-04T03:22:12;36;36;21
55043;PMS5003;54902;50.420;18.854;2023-12-04T03:22:44;36;36;21
55043;PMS5003;54902;50.420;18.854;2023-12-04T03:23:15;36;36;21
55043;PMS5003;54902;50.420;18.854;2023-12-04T03:23:46;36;36;21
55043;PMS5003;54902;50.420;18.854;2023-12-04T03:24:17;36;36;21
55043;PMS5003;54902;50.420;18.854;2023-12-04T03:24:48;36;36;21
55043;PMS5003;54902;50.420;18.854;2023-12-04T03:25:19;36;36;21
55043;PMS5003;54902;50.420;18.854;2023-12-04T03:25:50;36;36;21
55043;PMS5003;54902;50.420;18.854;2023-12-04T03:26:21;36;36;21
55043;PMS5003;54902;50.420;18.854;2023-12-04T03:26:52;36;36;21
55043;PMS5003;54902;50.420;18.854;2023-12-04T03:27:23;36;36;21